GMMX Airport Information

Runway Information
Runway 10 Length 10170 ft width 148 ft Elevation 1506 ft Threshold 918 ft Heading 96
Runway 28 Length 10170 ft Width 148 ft Elevation 1545 ft Threshold N/A Heading 276
Airport Frequencies
Type APP Name MARRAKECH Frequency 119.7 MHZ
Type TWR Name MARRAKECH Frequency 118.7 MHZ
Airport Navaids
Type NDB Name Marrakech Frequency 267 KHZ
Type VOR-DME Name Marrakech Frequency 113300 KHZ
Airport Weather Information & NOTAM
ADDS - METARS form results

(1552 UTC 05 December 2022)
Data provider http://aviationweather.gov/metar/data/
 
METAR text: GMMX 051530Z 28016KT 9999 SCT023 BKN080 18/13 Q1012 NOSIG
Conditions at: GMMX (MARRAKECH/MENARA, MA) observed 1530 UTC 05 December 2022
Temperature: 18.0°C (64°F)
Dewpoint: 13.0°C (55°F) [RH = 73%]
Pressure (altimeter): 29.88 inches Hg (1012.0 mb)
Winds: from the W (280 degrees) at 18 MPH (16 knots; 8.2 m/s)
Visibility: 6 or more miles (10+ km)
Ceiling: 8000 feet AGL
Clouds: scattered clouds at 2300 feet AGL
broken clouds at 8000 feet AGL
Weather: no significant weather observed at this time

METAR text: GMMX 051500Z 27017KT 9999 SCT023 BKN080 18/11 Q1011 NOSIG
Conditions at: GMMX (MARRAKECH/MENARA, MA) observed 1500 UTC 05 December 2022
Temperature: 18.0°C (64°F)
Dewpoint: 11.0°C (52°F) [RH = 64%]
Pressure (altimeter): 29.85 inches Hg (1011.0 mb)
Winds: from the W (270 degrees) at 20 MPH (17 knots; 8.7 m/s)
Visibility: 6 or more miles (10+ km)
Ceiling: 8000 feet AGL
Clouds: scattered clouds at 2300 feet AGL
broken clouds at 8000 feet AGL
Weather: no significant weather observed at this time

Forecast for: GMMX (MARRAKECH/MENARA, MA)
Text: TAF GMMX 051100Z 0512/0618 24010KT 8000 SCT023 SCT090
Forecast period: 1200 UTC 05 December 2022 to 1800 UTC 06 December 2022
Forecast type: FROM: standard forecast or significant change
Winds: from the WSW (240 degrees) at 12 MPH (10 knots; 5.1 m/s)
Visibility: 5 miles (8 km)
Ceiling: at least 12,000 feet AGL
Clouds: scattered clouds at 2300 feet AGL
scattered clouds at 9000 feet AGL
Weather: no significant weather forecast for this period
Text: PROB40
Forecast period: 1400 to 2000 UTC 05 December 2022
Forecast type: TEMPORARY: The following changes expected for less than half the time period
Winds: from the WSW (240 degrees) at 18 MPH (16 knots; 8.2 m/s)
gusting to 34 MPH (30 knots; 15.4 m/s)
Visibility: 3 miles (5 km)
Ceiling: 2000 feet AGL
Clouds: scattered clouds at 1000 feet AGL
broken clouds at 2000 feet AGL
Weather: RA  (moderate rain)